createdAt,value
2022-12-16T00:01:14.085Z,48.85
2022-12-16T00:03:44.228Z,48.13
2022-12-16T00:06:12.183Z,50.92
2022-12-16T00:08:40.805Z,46.45
2022-12-16T00:11:09.867Z,46.28
2022-12-16T00:13:40.299Z,53.50
2022-12-16T00:16:12.354Z,54.85
2022-12-16T00:18:40.425Z,51.78
2022-12-16T00:21:09.307Z,57.35
2022-12-16T00:23:39.344Z,58.35
2022-12-16T00:26:07.474Z,61.35
2022-12-16T00:28:36.085Z,60.55
2022-12-16T00:31:04.154Z,55.28
2022-12-16T00:33:34.461Z,43.30
2022-12-16T00:36:02.669Z,48.03
2022-12-16T00:38:30.492Z,48.88
2022-12-16T00:40:58.313Z,44.55
2022-12-16T00:43:26.162Z,43.47
2022-12-16T00:45:54.116Z,41.20
2022-12-16T00:48:23.432Z,40.22
2022-12-16T00:50:55.253Z,46.03
2022-12-16T00:53:25.246Z,46.47
2022-12-16T00:55:53.705Z,42.03
2022-12-16T00:58:21.559Z,43.50
2022-12-16T01:00:49.424Z,39.78
2022-12-16T01:03:21.623Z,39.78
2022-12-16T01:05:50.140Z,40.45
2022-12-16T01:08:19.908Z,39.15
2022-12-16T01:10:52.007Z,39.65
2022-12-16T01:15:48.233Z,41.67
2022-12-16T01:18:16.706Z,42.53
2022-12-16T01:20:44.513Z,39.80
2022-12-16T01:23:12.405Z,40.38
2022-12-16T01:25:41.626Z,36.90
2022-12-16T01:28:09.818Z,38.80
2022-12-16T01:30:37.674Z,40.08
2022-12-16T01:33:05.477Z,43.45
2022-12-16T01:38:20.903Z,40.95
2022-12-16T01:40:50.014Z,39.03
2022-12-16T01:43:19.959Z,42.92
2022-12-16T01:45:47.765Z,40.72
2022-12-16T01:48:23.465Z,40.47
2022-12-16T01:50:53.515Z,41.72
2022-12-16T01:53:21.511Z,40.40
2022-12-16T01:55:52.619Z,39.55
2022-12-16T01:58:25.209Z,41.63
2022-12-16T02:00:53.117Z,39.20
2022-12-16T02:03:23.377Z,41.63
2022-12-16T02:05:51.921Z,40.58
2022-12-16T02:08:23.558Z,41.10
2022-12-16T02:11:08.257Z,41.42
2022-12-16T02:13:57.408Z,40.33
2022-12-16T02:16:34.137Z,38.67
2022-12-16T02:19:19.545Z,39.72
2022-12-16T02:21:49.846Z,41.15
2022-12-16T02:27:18.086Z,39.53
2022-12-16T02:30:25.876Z,41.28
2022-12-16T02:33:07.216Z,38.85
2022-12-16T02:35:41.023Z,38.67
2022-12-16T02:38:19.283Z,38.08
2022-12-16T02:40:53.919Z,39.63
2022-12-16T02:43:40.438Z,38.42
2022-12-16T02:46:10.171Z,40.40
2022-12-16T02:48:38.050Z,38.65
2022-12-16T02:51:05.903Z,39.22
2022-12-16T02:53:37.726Z,39.67
2022-12-16T02:56:12.209Z,39.92
2022-12-16T02:58:50.570Z,36.78
2022-12-16T03:01:26.220Z,36.40
2022-12-16T03:04:02.446Z,38.78
2022-12-16T03:06:33.067Z,36.25
2022-12-16T03:09:04.691Z,33.65
2022-12-16T03:11:33.768Z,38.60
2022-12-16T03:14:04.394Z,39.00
2022-12-16T03:16:35.421Z,37.13
2022-12-16T03:19:06.791Z,35.75
2022-12-16T03:21:40.049Z,40.55
2022-12-16T03:24:13.773Z,37.92
2022-12-16T03:26:48.801Z,40.20
2022-12-16T03:29:23.023Z,36.72
2022-12-16T03:31:58.974Z,35.28
2022-12-16T03:34:33.759Z,37.22
2022-12-16T03:37:05.193Z,39.22
2022-12-16T03:39:35.840Z,35.90
2022-12-16T03:42:04.963Z,39.08
2022-12-16T03:44:33.379Z,38.80
2022-12-16T03:47:02.737Z,37.67
2022-12-16T03:49:30.535Z,36.65
2022-12-16T03:52:00.732Z,34.72
2022-12-16T03:54:28.923Z,36.47
2022-12-16T03:56:56.906Z,36.55
2022-12-16T03:59:24.893Z,36.25
2022-12-16T04:01:53.422Z,33.33
2022-12-16T04:04:23.409Z,38.22
2022-12-16T04:07:11.474Z,39.80
2022-12-16T04:09:39.542Z,36.30
2022-12-16T04:12:25.060Z,37.13
2022-12-16T04:15:10.875Z,39.35
2022-12-16T04:17:56.577Z,36.83
2022-12-16T04:20:48.800Z,41.10
2022-12-16T04:23:34.677Z,39.08
2022-12-16T04:26:02.881Z,37.35
2022-12-16T04:28:31.144Z,39.20
2022-12-16T04:30:59.458Z,38.58
2022-12-16T04:33:45.000Z,37.17
2022-12-16T04:36:31.794Z,40.22
2022-12-16T04:39:16.981Z,38.63
2022-12-16T04:42:02.364Z,35.97
2022-12-16T04:44:47.847Z,35.88
2022-12-16T04:47:33.652Z,38.28
2022-12-16T04:50:19.095Z,36.28
2022-12-16T04:53:09.828Z,37.92
2022-12-16T04:56:00.562Z,39.70
2022-12-16T04:58:49.310Z,37.75
2022-12-16T05:01:34.860Z,36.40
2022-12-16T05:04:20.546Z,37.00
2022-12-16T05:07:05.837Z,38.30
2022-12-16T05:09:53.001Z,37.55
2022-12-16T05:12:38.509Z,38.08
2022-12-16T05:15:24.907Z,38.20
2022-12-16T05:18:10.057Z,35.65
2022-12-16T05:20:55.532Z,41.25
2022-12-16T05:23:40.799Z,40.17
2022-12-16T05:26:28.084Z,36.67
2022-12-16T05:29:13.634Z,35.92
2022-12-16T05:31:58.851Z,37.08
2022-12-16T05:34:44.071Z,37.85
2022-12-16T05:37:29.776Z,36.03
2022-12-16T05:40:17.344Z,39.60
2022-12-16T05:43:08.940Z,45.38
2022-12-16T05:46:10.271Z,44.30
2022-12-16T05:48:58.380Z,45.20
2022-12-16T05:51:52.020Z,45.38
2022-12-16T05:54:38.649Z,44.92
2022-12-16T05:57:24.415Z,45.28
2022-12-16T06:00:19.873Z,41.70
2022-12-16T06:03:11.425Z,42.85
2022-12-16T06:06:07.494Z,42.78
2022-12-16T06:09:09.000Z,39.60
2022-12-16T06:11:54.767Z,37.22
2022-12-16T06:14:40.708Z,40.53
2022-12-16T06:17:28.179Z,37.90
2022-12-16T06:20:14.367Z,40.35
2022-12-16T06:23:10.388Z,39.08
2022-12-16T06:25:56.218Z,38.55
2022-12-16T06:28:45.901Z,40.92
2022-12-16T06:31:33.498Z,40.85
2022-12-16T06:34:21.285Z,39.95
2022-12-16T06:40:07.481Z,41.45
2022-12-16T06:42:52.868Z,43.63
2022-12-16T06:46:55.711Z,42.75
2022-12-16T06:49:45.169Z,42.88
2022-12-16T06:56:47.282Z,42.10
2022-12-16T06:59:32.394Z,46.80
2022-12-16T07:02:17.684Z,46.55
2022-12-16T07:05:02.950Z,48.13
2022-12-16T07:07:48.141Z,47.80
2022-12-16T07:10:33.361Z,43.80
2022-12-16T07:13:19.739Z,46.03
2022-12-16T07:16:05.843Z,46.22
2022-12-16T07:18:51.074Z,47.00
2022-12-16T07:21:36.434Z,41.97
2022-12-16T07:24:21.903Z,43.88
2022-12-16T07:27:07.307Z,43.78
2022-12-16T07:29:54.154Z,44.85
2022-12-16T07:32:39.759Z,43.90
2022-12-16T07:35:25.633Z,45.83
2022-12-16T07:38:11.063Z,42.10
2022-12-16T07:40:56.865Z,45.97
2022-12-16T07:43:42.250Z,45.33
2022-12-16T07:46:29.063Z,45.45
2022-12-16T14:20:09.180Z,63.20
2022-12-16T14:23:10.678Z,65.70
2022-12-16T14:26:00.736Z,68.05
2022-12-16T14:28:48.310Z,66.63
2022-12-16T14:31:37.532Z,61.90
2022-12-16T14:34:23.633Z,60.40
2022-12-16T14:37:09.198Z,65.30
2022-12-16T14:40:01.582Z,64.82
2022-12-16T14:42:48.703Z,62.45
2022-12-16T14:45:51.664Z,61.55
2022-12-16T14:49:06.345Z,60.90
2022-12-16T14:55:16.872Z,62.03
2022-12-16T14:58:13.168Z,60.80
2022-12-16T15:01:00.239Z,62.78
2022-12-16T15:03:54.952Z,66.60
2022-12-16T15:06:46.052Z,61.28
2022-12-16T15:09:42.091Z,63.40
2022-12-16T15:14:09.827Z,57.45
2022-12-16T15:16:01.221Z,62.03
2022-12-16T15:19:13.685Z,56.90
2022-12-16T15:22:09.415Z,46.25
2022-12-16T15:25:03.319Z,56.30
2022-12-16T16:11:57.922Z,54.05
2022-12-16T16:15:24.255Z,53.05
2022-12-16T16:21:42.553Z,54.42
2022-12-16T16:24:28.052Z,54.38
2022-12-16T17:34:08.289Z,59.95
2022-12-16T17:36:59.407Z,64.28
2022-12-16T17:39:45.054Z,61.33
2022-12-16T17:42:30.620Z,66.38
2022-12-16T17:45:15.919Z,64.18
2022-12-16T17:48:02.833Z,60.90
2022-12-16T17:50:51.476Z,66.72
2022-12-16T17:53:37.126Z,65.55
2022-12-16T17:56:26.240Z,63.65
2022-12-16T17:59:13.394Z,59.60
2022-12-16T18:01:58.704Z,59.85
2022-12-16T18:07:34.365Z,89.68
2022-12-16T18:10:20.969Z,65.38
2022-12-16T18:13:06.508Z,62.70
2022-12-16T18:15:52.073Z,72.28
2022-12-16T18:22:05.515Z,64.00
2022-12-16T18:25:09.594Z,73.80
2022-12-16T18:28:00.736Z,74.70
2022-12-16T18:30:46.308Z,80.85
2022-12-16T18:33:33.515Z,79.35
2022-12-16T18:36:24.649Z,91.95
2022-12-16T18:39:09.909Z,78.72
2022-12-16T18:42:02.245Z,92.47
2022-12-16T18:44:59.185Z,91.97
2022-12-16T18:47:48.946Z,94.57
2022-12-16T18:50:45.982Z,95.68
2022-12-16T18:53:31.393Z,101.57
2022-12-16T18:56:20.849Z,98.93
2022-12-16T18:59:07.785Z,105.47
2022-12-16T19:01:53.461Z,94.47
2022-12-16T19:08:34.423Z,94.05
2022-12-16T19:11:21.922Z,104.55
2022-12-16T20:24:13.884Z,102.50
2022-12-16T20:27:19.692Z,92.78
2022-12-16T20:30:25.529Z,93.03
2022-12-16T20:33:16.879Z,97.28
2022-12-16T20:47:02.161Z,88.82
2022-12-16T21:07:48.177Z,78.82
2022-12-16T21:14:30.504Z,85.93
2022-12-16T21:17:29.101Z,81.95
2022-12-16T21:20:22.414Z,86.45
2022-12-16T21:23:17.330Z,78.63
2022-12-16T21:43:23.830Z,68.28
2022-12-16T21:49:39.391Z,64.00
2022-12-16T21:52:40.567Z,67.63
2022-12-16T21:55:31.453Z,76.05
2022-12-16T21:58:18.681Z,62.80
2022-12-16T22:01:04.187Z,74.78
2022-12-16T22:03:54.460Z,70.55
2022-12-16T22:06:48.858Z,77.75
2022-12-16T22:09:58.253Z,74.53
2022-12-16T22:12:45.021Z,72.72
2022-12-16T22:18:12.747Z,66.75
2022-12-16T22:20:58.203Z,62.53
2022-12-16T22:23:47.526Z,66.20
2022-12-16T22:26:32.914Z,66.10
2022-12-16T22:29:18.881Z,69.10
2022-12-16T22:32:04.198Z,64.20
2022-12-16T22:34:50.640Z,62.33
2022-12-16T22:37:36.156Z,78.20
2022-12-16T22:40:21.315Z,74.70
2022-12-16T22:43:07.038Z,76.97
2022-12-16T22:45:52.561Z,73.82
2022-12-16T22:48:43.067Z,76.68
2022-12-16T22:51:33.156Z,78.90
2022-12-16T22:54:18.887Z,76.20
2022-12-16T22:57:04.866Z,75.40
2022-12-16T22:59:50.127Z,72.97
2022-12-16T23:02:35.611Z,62.33
2022-12-16T23:05:27.139Z,68.88
2022-12-16T23:08:17.212Z,68.32
2022-12-16T23:11:02.407Z,78.43
2022-12-16T23:13:47.596Z,65.50
2022-12-16T23:16:32.992Z,64.32
2022-12-16T23:19:18.841Z,63.83
2022-12-16T23:22:03.909Z,65.53
2022-12-16T23:24:59.313Z,65.10
2022-12-16T23:27:44.793Z,67.50
2022-12-16T23:30:30.548Z,75.28
2022-12-16T23:33:16.698Z,73.90
2022-12-16T23:36:02.178Z,74.70
2022-12-16T23:38:47.420Z,66.50
2022-12-16T23:41:33.084Z,69.80
2022-12-16T23:44:18.492Z,66.22
2022-12-16T23:47:03.862Z,63.92
2022-12-16T23:49:49.024Z,65.22
2022-12-16T23:52:34.644Z,66.63
2022-12-16T23:55:19.857Z,69.97
2022-12-16T23:58:08.728Z,64.50
